sensor_id;sensor_type;location;lat;lon;timestamp;P1;durP1;ratioP1;P2;durP2;ratioP2
72325;SDS011;60278;47.980;18.780;2023-11-19T00:01:28;14.20;;;6.80;;
72325;SDS011;60278;47.980;18.780;2023-11-19T00:04:30;11.77;;;6.43;;
72325;SDS011;60278;47.980;18.780;2023-11-19T00:07:33;12.73;;;7.18;;
72325;SDS011;60278;47.980;18.780;2023-11-19T00:10:36;12.63;;;7.18;;
72325;SDS011;60278;47.980;18.780;2023-11-19T00:13:38;14.23;;;7.47;;
72325;SDS011;60278;47.980;18.780;2023-11-19T00:16:40;14.23;;;7.55;;
72325;SDS011;60278;47.980;18.780;2023-11-19T00:19:42;13.30;;;7.07;;
72325;SDS011;60278;47.980;18.780;2023-11-19T00:22:45;16.58;;;8.38;;
72325;SDS011;60278;47.980;18.780;2023-11-19T00:25:51;15.02;;;7.78;;
72325;SDS011;60278;47.980;18.780;2023-11-19T00:28:53;16.10;;;7.60;;
72325;SDS011;60278;47.980;18.780;2023-11-19T00:31:57;18.38;;;9.18;;
72325;SDS011;60278;47.980;18.780;2023-11-19T00:35:00;12.57;;;7.93;;
72325;SDS011;60278;47.980;18.780;2023-11-19T00:38:02;13.68;;;7.80;;
72325;SDS011;60278;47.980;18.780;2023-11-19T00:41:05;12.88;;;7.13;;
72325;SDS011;60278;47.980;18.780;2023-11-19T00:44:08;12.93;;;7.50;;
72325;SDS011;60278;47.980;18.780;2023-11-19T00:47:10;12.18;;;7.15;;
72325;SDS011;60278;47.980;18.780;2023-11-19T00:50:12;12.57;;;7.23;;
72325;SDS011;60278;47.980;18.780;2023-11-19T00:53:15;17.58;;;6.93;;
72325;SDS011;60278;47.980;18.780;2023-11-19T00:56:17;14.90;;;7.13;;
72325;SDS011;60278;47.980;18.780;2023-11-19T00:59:19;14.40;;;7.80;;
72325;SDS011;60278;47.980;18.780;2023-11-19T01:02:21;15.25;;;7.20;;
72325;SDS011;60278;47.980;18.780;2023-11-19T01:05:23;13.20;;;7.20;;
72325;SDS011;60278;47.980;18.780;2023-11-19T01:08:27;12.47;;;7.47;;
72325;SDS011;60278;47.980;18.780;2023-11-19T01:11:29;14.25;;;7.55;;
72325;SDS011;60278;47.980;18.780;2023-11-19T01:14:32;13.73;;;7.07;;
72325;SDS011;60278;47.980;18.780;2023-11-19T01:17:34;11.48;;;7.07;;
72325;SDS011;60278;47.980;18.780;2023-11-19T01:20:36;15.20;;;7.77;;
72325;SDS011;60278;47.980;18.780;2023-11-19T01:23:38;13.90;;;7.72;;
72325;SDS011;60278;47.980;18.780;2023-11-19T01:26:41;15.95;;;8.05;;
72325;SDS011;60278;47.980;18.780;2023-11-19T01:29:47;15.98;;;7.55;;
72325;SDS011;60278;47.980;18.780;2023-11-19T01:32:49;17.17;;;8.18;;
72325;SDS011;60278;47.980;18.780;2023-11-19T01:35:51;13.30;;;8.20;;
72325;SDS011;60278;47.980;18.780;2023-11-19T01:38:53;13.13;;;8.10;;
72325;SDS011;60278;47.980;18.780;2023-11-19T01:41:55;13.50;;;7.28;;
72325;SDS011;60278;47.980;18.780;2023-11-19T01:44:58;13.95;;;7.70;;
72325;SDS011;60278;47.980;18.780;2023-11-19T01:48:02;14.05;;;7.68;;
72325;SDS011;60278;47.980;18.780;2023-11-19T01:51:07;12.53;;;6.87;;
72325;SDS011;60278;47.980;18.780;2023-11-19T01:54:10;12.35;;;7.30;;
72325;SDS011;60278;47.980;18.780;2023-11-19T01:57:12;12.80;;;7.13;;
72325;SDS011;60278;47.980;18.780;2023-11-19T02:00:14;13.90;;;7.93;;
72325;SDS011;60278;47.980;18.780;2023-11-19T02:03:18;13.23;;;7.65;;
72325;SDS011;60278;47.980;18.780;2023-11-19T02:06:21;14.70;;;7.80;;
72325;SDS011;60278;47.980;18.780;2023-11-19T02:09:24;14.32;;;7.53;;
72325;SDS011;60278;47.980;18.780;2023-11-19T02:12:26;12.75;;;7.68;;
72325;SDS011;60278;47.980;18.780;2023-11-19T02:15:35;12.80;;;6.97;;
72325;SDS011;60278;47.980;18.780;2023-11-19T02:18:37;14.35;;;7.70;;
72325;SDS011;60278;47.980;18.780;2023-11-19T02:21:39;14.30;;;7.73;;
72325;SDS011;60278;47.980;18.780;2023-11-19T02:24:43;12.43;;;8.20;;
72325;SDS011;60278;47.980;18.780;2023-11-19T02:27:53;12.38;;;7.35;;
72325;SDS011;60278;47.980;18.780;2023-11-19T02:30:58;14.45;;;8.43;;
72325;SDS011;60278;47.980;18.780;2023-11-19T02:34:00;13.85;;;7.90;;
72325;SDS011;60278;47.980;18.780;2023-11-19T02:37:04;13.43;;;7.43;;
72325;SDS011;60278;47.980;18.780;2023-11-19T02:40:07;12.98;;;7.43;;
72325;SDS011;60278;47.980;18.780;2023-11-19T02:43:11;17.17;;;9.23;;
72325;SDS011;60278;47.980;18.780;2023-11-19T02:46:13;12.60;;;8.02;;
72325;SDS011;60278;47.980;18.780;2023-11-19T02:49:17;15.68;;;9.40;;
72325;SDS011;60278;47.980;18.780;2023-11-19T02:52:19;33.87;;;15.83;;
72325;SDS011;60278;47.980;18.780;2023-11-19T02:55:21;31.45;;;16.20;;
72325;SDS011;60278;47.980;18.780;2023-11-19T02:58:25;34.78;;;17.50;;
72325;SDS011;60278;47.980;18.780;2023-11-19T03:01:29;24.83;;;13.70;;
72325;SDS011;60278;47.980;18.780;2023-11-19T03:04:33;18.75;;;11.70;;
72325;SDS011;60278;47.980;18.780;2023-11-19T03:07:36;19.70;;;12.40;;
72325;SDS011;60278;47.980;18.780;2023-11-19T03:10:38;26.83;;;14.82;;
72325;SDS011;60278;47.980;18.780;2023-11-19T03:13:40;25.75;;;15.05;;
72325;SDS011;60278;47.980;18.780;2023-11-19T03:16:46;24.38;;;14.55;;
72325;SDS011;60278;47.980;18.780;2023-11-19T03:19:48;20.80;;;13.38;;
72325;SDS011;60278;47.980;18.780;2023-11-19T03:22:51;20.37;;;10.83;;
72325;SDS011;60278;47.980;18.780;2023-11-19T03:25:54;17.90;;;10.02;;
72325;SDS011;60278;47.980;18.780;2023-11-19T03:28:57;13.95;;;8.93;;
72325;SDS011;60278;47.980;18.780;2023-11-19T03:31:59;14.00;;;7.60;;
72325;SDS011;60278;47.980;18.780;2023-11-19T03:35:01;13.27;;;7.93;;
72325;SDS011;60278;47.980;18.780;2023-11-19T03:38:03;13.90;;;7.80;;
72325;SDS011;60278;47.980;18.780;2023-11-19T03:41:12;14.20;;;8.57;;
72325;SDS011;60278;47.980;18.780;2023-11-19T03:44:14;13.00;;;6.97;;
72325;SDS011;60278;47.980;18.780;2023-11-19T03:47:16;14.23;;;8.27;;
72325;SDS011;60278;47.980;18.780;2023-11-19T03:50:18;16.70;;;7.72;;
72325;SDS011;60278;47.980;18.780;2023-11-19T03:53:22;14.33;;;7.50;;
72325;SDS011;60278;47.980;18.780;2023-11-19T03:56:25;14.18;;;7.70;;
72325;SDS011;60278;47.980;18.780;2023-11-19T03:59:29;15.32;;;8.30;;
72325;SDS011;60278;47.980;18.780;2023-11-19T04:02:31;17.10;;;7.93;;
72325;SDS011;60278;47.980;18.780;2023-11-19T04:05:33;15.07;;;8.02;;
72325;SDS011;60278;47.980;18.780;2023-11-19T04:08:35;17.10;;;10.07;;
72325;SDS011;60278;47.980;18.780;2023-11-19T04:11:37;16.13;;;9.43;;
72325;SDS011;60278;47.980;18.780;2023-11-19T04:14:39;16.20;;;8.95;;
72325;SDS011;60278;47.980;18.780;2023-11-19T04:17:42;24.38;;;14.10;;
72325;SDS011;60278;47.980;18.780;2023-11-19T04:20:44;24.65;;;14.15;;
72325;SDS011;60278;47.980;18.780;2023-11-19T04:23:46;24.07;;;14.57;;
72325;SDS011;60278;47.980;18.780;2023-11-19T04:26:48;24.67;;;15.05;;
72325;SDS011;60278;47.980;18.780;2023-11-19T04:29:51;24.23;;;15.90;;
72325;SDS011;60278;47.980;18.780;2023-11-19T04:32:53;25.83;;;17.52;;
72325;SDS011;60278;47.980;18.780;2023-11-19T04:35:55;27.27;;;17.73;;
72325;SDS011;60278;47.980;18.780;2023-11-19T04:38:57;24.07;;;15.33;;
72325;SDS011;60278;47.980;18.780;2023-11-19T04:42:02;43.75;;;22.85;;
72325;SDS011;60278;47.980;18.780;2023-11-19T04:45:04;38.88;;;20.50;;
72325;SDS011;60278;47.980;18.780;2023-11-19T04:48:08;17.00;;;9.63;;
72325;SDS011;60278;47.980;18.780;2023-11-19T04:51:10;15.02;;;9.05;;
72325;SDS011;60278;47.980;18.780;2023-11-19T04:54:13;15.50;;;8.47;;
72325;SDS011;60278;47.980;18.780;2023-11-19T04:57:15;16.40;;;9.15;;
72325;SDS011;60278;47.980;18.780;2023-11-19T05:00:17;17.58;;;9.95;;
72325;SDS011;60278;47.980;18.780;2023-11-19T05:03:20;18.23;;;9.50;;
72325;SDS011;60278;47.980;18.780;2023-11-19T05:06:28;16.42;;;10.05;;
72325;SDS011;60278;47.980;18.780;2023-11-19T05:09:31;17.33;;;9.30;;
72325;SDS011;60278;47.980;18.780;2023-11-19T05:12:33;19.08;;;10.55;;
72325;SDS011;60278;47.980;18.780;2023-11-19T05:15:35;19.55;;;10.43;;
72325;SDS011;60278;47.980;18.780;2023-11-19T05:18:37;22.20;;;11.80;;
72325;SDS011;60278;47.980;18.780;2023-11-19T05:21:43;23.48;;;12.65;;
72325;SDS011;60278;47.980;18.780;2023-11-19T05:24:45;28.10;;;16.67;;
72325;SDS011;60278;47.980;18.780;2023-11-19T05:27:47;33.23;;;16.43;;
72325;SDS011;60278;47.980;18.780;2023-11-19T05:30:49;30.75;;;17.55;;
72325;SDS011;60278;47.980;18.780;2023-11-19T05:33:52;22.05;;;13.10;;
72325;SDS011;60278;47.980;18.780;2023-11-19T05:36:54;25.50;;;13.75;;
72325;SDS011;60278;47.980;18.780;2023-11-19T05:39:56;25.07;;;13.87;;
72325;SDS011;60278;47.980;18.780;2023-11-19T05:42:58;23.98;;;14.20;;
72325;SDS011;60278;47.980;18.780;2023-11-19T05:46:01;24.13;;;12.82;;
72325;SDS011;60278;47.980;18.780;2023-11-19T05:49:03;29.60;;;14.98;;
72325;SDS011;60278;47.980;18.780;2023-11-19T05:52:06;26.52;;;13.38;;
72325;SDS011;60278;47.980;18.780;2023-11-19T05:55:09;21.63;;;11.70;;
72325;SDS011;60278;47.980;18.780;2023-11-19T05:58:12;18.75;;;10.13;;
72325;SDS011;60278;47.980;18.780;2023-11-19T06:01:14;19.48;;;10.75;;
72325;SDS011;60278;47.980;18.780;2023-11-19T06:04:17;24.60;;;11.40;;
72325;SDS011;60278;47.980;18.780;2023-11-19T06:07:19;21.00;;;10.75;;
72325;SDS011;60278;47.980;18.780;2023-11-19T06:10:21;18.33;;;10.63;;
72325;SDS011;60278;47.980;18.780;2023-11-19T06:13:24;22.23;;;11.48;;
72325;SDS011;60278;47.980;18.780;2023-11-19T06:16:27;19.42;;;10.38;;
72325;SDS011;60278;47.980;18.780;2023-11-19T06:19:29;17.40;;;9.25;;
72325;SDS011;60278;47.980;18.780;2023-11-19T06:22:32;20.33;;;10.45;;
72325;SDS011;60278;47.980;18.780;2023-11-19T06:25:34;25.47;;;12.00;;
72325;SDS011;60278;47.980;18.780;2023-11-19T06:28:37;20.13;;;12.00;;
72325;SDS011;60278;47.980;18.780;2023-11-19T06:31:40;29.88;;;16.83;;
72325;SDS011;60278;47.980;18.780;2023-11-19T06:34:42;41.65;;;22.48;;
72325;SDS011;60278;47.980;18.780;2023-11-19T06:37:44;55.55;;;27.23;;
72325;SDS011;60278;47.980;18.780;2023-11-19T06:40:46;49.03;;;21.93;;
72325;SDS011;60278;47.980;18.780;2023-11-19T06:43:51;48.57;;;23.07;;
72325;SDS011;60278;47.980;18.780;2023-11-19T06:46:54;27.83;;;16.08;;
72325;SDS011;60278;47.980;18.780;2023-11-19T06:49:56;22.85;;;12.38;;
72325;SDS011;60278;47.980;18.780;2023-11-19T06:52:58;24.80;;;13.77;;
72325;SDS011;60278;47.980;18.780;2023-11-19T06:56:00;30.07;;;17.40;;
72325;SDS011;60278;47.980;18.780;2023-11-19T06:59:02;34.10;;;18.15;;
72325;SDS011;60278;47.980;18.780;2023-11-19T07:02:05;29.08;;;14.32;;
72325;SDS011;60278;47.980;18.780;2023-11-19T07:05:08;24.70;;;14.02;;
72325;SDS011;60278;47.980;18.780;2023-11-19T07:08:10;21.65;;;12.85;;
72325;SDS011;60278;47.980;18.780;2023-11-19T07:11:13;25.50;;;13.73;;
72325;SDS011;60278;47.980;18.780;2023-11-19T07:14:17;24.33;;;14.52;;
72325;SDS011;60278;47.980;18.780;2023-11-19T07:17:19;30.98;;;17.80;;
72325;SDS011;60278;47.980;18.780;2023-11-19T07:20:22;31.90;;;18.63;;
72325;SDS011;60278;47.980;18.780;2023-11-19T07:23:24;30.50;;;16.70;;
72325;SDS011;60278;47.980;18.780;2023-11-19T07:26:26;28.03;;;16.53;;
72325;SDS011;60278;47.980;18.780;2023-11-19T07:29:29;25.57;;;14.07;;
72325;SDS011;60278;47.980;18.780;2023-11-19T07:32:31;33.72;;;16.65;;
72325;SDS011;60278;47.980;18.780;2023-11-19T07:35:33;27.75;;;15.30;;
72325;SDS011;60278;47.980;18.780;2023-11-19T07:38:35;30.80;;;15.32;;
72325;SDS011;60278;47.980;18.780;2023-11-19T07:41:37;31.47;;;16.30;;
72325;SDS011;60278;47.980;18.780;2023-11-19T07:44:40;19.87;;;12.50;;
72325;SDS011;60278;47.980;18.780;2023-11-19T07:47:43;22.30;;;12.73;;
72325;SDS011;60278;47.980;18.780;2023-11-19T07:50:46;18.35;;;11.70;;
72325;SDS011;60278;47.980;18.780;2023-11-19T07:53:48;26.95;;;15.00;;
72325;SDS011;60278;47.980;18.780;2023-11-19T07:56:51;25.17;;;13.60;;
72325;SDS011;60278;47.980;18.780;2023-11-19T07:59:53;30.20;;;17.57;;
72325;SDS011;60278;47.980;18.780;2023-11-19T08:02:55;30.30;;;17.42;;
72325;SDS011;60278;47.980;18.780;2023-11-19T08:05:58;40.35;;;23.63;;
72325;SDS011;60278;47.980;18.780;2023-11-19T08:09:00;30.40;;;17.13;;
72325;SDS011;60278;47.980;18.780;2023-11-19T08:12:02;34.77;;;17.93;;
72325;SDS011;60278;47.980;18.780;2023-11-19T08:15:05;30.60;;;16.93;;
72325;SDS011;60278;47.980;18.780;2023-11-19T08:18:08;29.98;;;15.40;;
72325;SDS011;60278;47.980;18.780;2023-11-19T08:21:11;22.17;;;13.07;;
72325;SDS011;60278;47.980;18.780;2023-11-19T08:24:13;21.73;;;13.38;;
72325;SDS011;60278;47.980;18.780;2023-11-19T08:27:15;26.90;;;14.03;;
72325;SDS011;60278;47.980;18.780;2023-11-19T08:30:17;23.50;;;15.97;;
72325;SDS011;60278;47.980;18.780;2023-11-19T08:33:19;29.33;;;18.17;;
72325;SDS011;60278;47.980;18.780;2023-11-19T08:36:24;29.58;;;17.05;;
72325;SDS011;60278;47.980;18.780;2023-11-19T08:39:26;30.55;;;17.58;;
72325;SDS011;60278;47.980;18.780;2023-11-19T08:42:28;31.70;;;17.67;;
72325;SDS011;60278;47.980;18.780;2023-11-19T08:45:31;27.50;;;15.83;;
72325;SDS011;60278;47.980;18.780;2023-11-19T08:48:33;26.73;;;15.25;;
72325;SDS011;60278;47.980;18.780;2023-11-19T08:51:35;32.70;;;17.88;;
72325;SDS011;60278;47.980;18.780;2023-11-19T08:54:37;39.65;;;21.60;;
72325;SDS011;60278;47.980;18.780;2023-11-19T08:57:39;49.67;;;22.20;;
72325;SDS011;60278;47.980;18.780;2023-11-19T09:00:41;40.63;;;20.27;;
72325;SDS011;60278;47.980;18.780;2023-11-19T09:03:43;37.45;;;18.73;;
72325;SDS011;60278;47.980;18.780;2023-11-19T09:06:46;33.67;;;18.13;;
72325;SDS011;60278;47.980;18.780;2023-11-19T09:09:48;32.72;;;17.95;;
72325;SDS011;60278;47.980;18.780;2023-11-19T09:12:50;26.33;;;14.73;;
72325;SDS011;60278;47.980;18.780;2023-11-19T09:15:52;35.37;;;17.87;;
72325;SDS011;60278;47.980;18.780;2023-11-19T09:18:54;28.02;;;17.42;;
72325;SDS011;60278;47.980;18.780;2023-11-19T09:21:56;28.80;;;15.75;;
72325;SDS011;60278;47.980;18.780;2023-11-19T09:24:58;23.23;;;15.45;;
72325;SDS011;60278;47.980;18.780;2023-11-19T09:28:02;33.60;;;18.27;;
72325;SDS011;60278;47.980;18.780;2023-11-19T09:31:13;37.37;;;19.30;;
72325;SDS011;60278;47.980;18.780;2023-11-19T09:34:16;40.22;;;23.30;;
72325;SDS011;60278;47.980;18.780;2023-11-19T09:37:18;38.53;;;22.58;;
72325;SDS011;60278;47.980;18.780;2023-11-19T09:40:23;31.90;;;19.45;;
72325;SDS011;60278;47.980;18.780;2023-11-19T09:43:25;32.77;;;19.17;;
72325;SDS011;60278;47.980;18.780;2023-11-19T09:46:30;42.33;;;23.23;;
72325;SDS011;60278;47.980;18.780;2023-11-19T09:49:32;46.72;;;26.20;;
72325;SDS011;60278;47.980;18.780;2023-11-19T09:52:37;30.77;;;19.77;;
72325;SDS011;60278;47.980;18.780;2023-11-19T09:55:40;27.60;;;16.00;;
72325;SDS011;60278;47.980;18.780;2023-11-19T09:58:42;28.07;;;14.43;;
72325;SDS011;60278;47.980;18.780;2023-11-19T10:01:45;31.43;;;16.37;;
72325;SDS011;60278;47.980;18.780;2023-11-19T10:04:47;30.63;;;14.38;;
72325;SDS011;60278;47.980;18.780;2023-11-19T10:07:50;28.52;;;14.63;;
72325;SDS011;60278;47.980;18.780;2023-11-19T10:10:52;24.98;;;16.65;;
72325;SDS011;60278;47.980;18.780;2023-11-19T10:13:54;23.80;;;14.33;;
72325;SDS011;60278;47.980;18.780;2023-11-19T10:16:56;40.13;;;28.87;;
72325;SDS011;60278;47.980;18.780;2023-11-19T10:19:59;33.22;;;20.52;;
72325;SDS011;60278;47.980;18.780;2023-11-19T10:23:01;28.80;;;17.92;;
72325;SDS011;60278;47.980;18.780;2023-11-19T10:26:03;27.00;;;17.63;;
72325;SDS011;60278;47.980;18.780;2023-11-19T10:29:08;33.70;;;21.97;;
72325;SDS011;60278;47.980;18.780;2023-11-19T10:32:14;26.53;;;17.83;;
72325;SDS011;60278;47.980;18.780;2023-11-19T10:35:28;24.05;;;16.05;;
72325;SDS011;60278;47.980;18.780;2023-11-19T10:38:30;25.75;;;16.23;;
72325;SDS011;60278;47.980;18.780;2023-11-19T10:41:32;27.80;;;15.80;;
72325;SDS011;60278;47.980;18.780;2023-11-19T10:44:35;34.23;;;21.00;;
72325;SDS011;60278;47.980;18.780;2023-11-19T10:47:38;27.90;;;18.63;;
72325;SDS011;60278;47.980;18.780;2023-11-19T10:50:44;26.20;;;16.33;;
72325;SDS011;60278;47.980;18.780;2023-11-19T10:53:46;29.38;;;15.25;;
72325;SDS011;60278;47.980;18.780;2023-11-19T10:56:54;28.27;;;16.90;;
72325;SDS011;60278;47.980;18.780;2023-11-19T10:59:59;25.50;;;14.30;;
72325;SDS011;60278;47.980;18.780;2023-11-19T11:03:05;21.87;;;13.30;;
72325;SDS011;60278;47.980;18.780;2023-11-19T11:06:10;20.08;;;12.77;;
72325;SDS011;60278;47.980;18.780;2023-11-19T11:09:13;22.52;;;13.50;;
72325;SDS011;60278;47.980;18.780;2023-11-19T11:12:17;25.73;;;14.80;;
72325;SDS011;60278;47.980;18.780;2023-11-19T11:15:19;27.30;;;15.77;;
72325;SDS011;60278;47.980;18.780;2023-11-19T11:18:21;36.73;;;18.07;;
72325;SDS011;60278;47.980;18.780;2023-11-19T11:21:25;38.78;;;19.05;;
72325;SDS011;60278;47.980;18.780;2023-11-19T11:24:39;35.47;;;18.73;;
72325;SDS011;60278;47.980;18.780;2023-11-19T11:30:55;30.77;;;18.33;;
72325;SDS011;60278;47.980;18.780;2023-11-19T11:37:21;25.33;;;14.88;;
72325;SDS011;60278;47.980;18.780;2023-11-19T11:40:26;25.45;;;15.73;;
72325;SDS011;60278;47.980;18.780;2023-11-19T11:44:11;32.72;;;16.13;;
72325;SDS011;60278;47.980;18.780;2023-11-19T11:46:53;34.23;;;16.97;;
72325;SDS011;60278;47.980;18.780;2023-11-19T11:49:55;28.97;;;15.07;;
72325;SDS011;60278;47.980;18.780;2023-11-19T11:56:01;28.77;;;14.85;;
72325;SDS011;60278;47.980;18.780;2023-11-19T11:59:07;27.63;;;14.73;;
72325;SDS011;60278;47.980;18.780;2023-11-19T12:02:19;28.73;;;15.90;;
72325;SDS011;60278;47.980;18.780;2023-11-19T12:05:23;28.33;;;15.33;;
72325;SDS011;60278;47.980;18.780;2023-11-19T12:08:26;24.60;;;13.93;;
72325;SDS011;60278;47.980;18.780;2023-11-19T12:11:28;24.60;;;12.75;;
72325;SDS011;60278;47.980;18.780;2023-11-19T12:17:55;19.93;;;13.17;;
72325;SDS011;60278;47.980;18.780;2023-11-19T12:20:58;22.43;;;14.10;;
72325;SDS011;60278;47.980;18.780;2023-11-19T12:24:02;27.83;;;16.05;;
72325;SDS011;60278;47.980;18.780;2023-11-19T12:27:09;36.17;;;19.80;;
72325;SDS011;60278;47.980;18.780;2023-11-19T12:30:12;29.40;;;17.25;;
72325;SDS011;60278;47.980;18.780;2023-11-19T12:33:14;24.07;;;15.00;;
72325;SDS011;60278;47.980;18.780;2023-11-19T12:36:16;29.07;;;16.17;;
72325;SDS011;60278;47.980;18.780;2023-11-19T12:39:19;33.83;;;17.33;;
72325;SDS011;60278;47.980;18.780;2023-11-19T12:42:21;37.83;;;19.17;;
72325;SDS011;60278;47.980;18.780;2023-11-19T12:45:23;23.15;;;13.50;;
72325;SDS011;60278;47.980;18.780;2023-11-19T12:48:26;23.97;;;13.93;;
72325;SDS011;60278;47.980;18.780;2023-11-19T12:51:31;20.83;;;13.53;;
72325;SDS011;60278;47.980;18.780;2023-11-19T12:54:35;26.17;;;13.57;;
72325;SDS011;60278;47.980;18.780;2023-11-19T12:57:40;40.40;;;20.60;;
72325;SDS011;60278;47.980;18.780;2023-11-19T13:00:43;35.40;;;20.70;;
72325;SDS011;60278;47.980;18.780;2023-11-19T13:03:45;52.40;;;25.43;;
72325;SDS011;60278;47.980;18.780;2023-11-19T13:06:48;36.33;;;22.40;;
72325;SDS011;60278;47.980;18.780;2023-11-19T13:10:00;38.85;;;20.65;;
72325;SDS011;60278;47.980;18.780;2023-11-19T13:13:06;38.13;;;20.15;;
72325;SDS011;60278;47.980;18.780;2023-11-19T13:16:10;37.17;;;20.58;;
72325;SDS011;60278;47.980;18.780;2023-11-19T13:19:12;31.00;;;17.47;;
72325;SDS011;60278;47.980;18.780;2023-11-19T13:22:15;32.37;;;17.13;;
72325;SDS011;60278;47.980;18.780;2023-11-19T13:25:17;38.85;;;22.75;;
72325;SDS011;60278;47.980;18.780;2023-11-19T13:28:19;31.60;;;20.23;;
72325;SDS011;60278;47.980;18.780;2023-11-19T13:31:21;30.80;;;20.10;;
72325;SDS011;60278;47.980;18.780;2023-11-19T13:34:24;33.87;;;19.00;;
72325;SDS011;60278;47.980;18.780;2023-11-19T13:37:27;29.20;;;18.50;;
72325;SDS011;60278;47.980;18.780;2023-11-19T13:40:29;33.72;;;21.58;;
72325;SDS011;60278;47.980;18.780;2023-11-19T13:43:31;29.13;;;18.35;;
72325;SDS011;60278;47.980;18.780;2023-11-19T13:46:33;26.92;;;16.67;;
72325;SDS011;60278;47.980;18.780;2023-11-19T13:49:35;33.80;;;18.90;;
72325;SDS011;60278;47.980;18.780;2023-11-19T13:52:39;38.80;;;23.20;;
72325;SDS011;60278;47.980;18.780;2023-11-19T13:55:41;36.08;;;22.92;;
72325;SDS011;60278;47.980;18.780;2023-11-19T13:58:44;26.50;;;16.45;;
72325;SDS011;60278;47.980;18.780;2023-11-19T14:01:46;26.55;;;15.07;;
72325;SDS011;60278;47.980;18.780;2023-11-19T14:04:48;15.07;;;8.67;;
72325;SDS011;60278;47.980;18.780;2023-11-19T14:07:50;13.60;;;8.90;;
72325;SDS011;60278;47.980;18.780;2023-11-19T14:10:53;12.88;;;7.72;;
72325;SDS011;60278;47.980;18.780;2023-11-19T14:13:57;17.90;;;11.02;;
72325;SDS011;60278;47.980;18.780;2023-11-19T14:17:00;11.73;;;8.40;;
72325;SDS011;60278;47.980;18.780;2023-11-19T14:20:06;12.17;;;7.83;;
72325;SDS011;60278;47.980;18.780;2023-11-19T14:23:18;23.07;;;14.27;;
72325;SDS011;60278;47.980;18.780;2023-11-19T14:26:20;17.95;;;11.40;;
72325;SDS011;60278;47.980;18.780;2023-11-19T14:29:22;13.43;;;8.48;;
72325;SDS011;60278;47.980;18.780;2023-11-19T14:32:24;23.05;;;14.43;;
72325;SDS011;60278;47.980;18.780;2023-11-19T14:35:26;27.80;;;17.67;;
72325;SDS011;60278;47.980;18.780;2023-11-19T14:38:28;44.27;;;21.43;;
72325;SDS011;60278;47.980;18.780;2023-11-19T14:41:30;30.80;;;14.68;;
72325;SDS011;60278;47.980;18.780;2023-11-19T14:44:32;34.83;;;15.30;;
72325;SDS011;60278;47.980;18.780;2023-11-19T14:47:35;20.42;;;12.45;;
72325;SDS011;60278;47.980;18.780;2023-11-19T14:50:37;21.10;;;14.10;;
72325;SDS011;60278;47.980;18.780;2023-11-19T14:53:39;36.57;;;19.07;;
72325;SDS011;60278;47.980;18.780;2023-11-19T14:56:42;36.47;;;21.02;;
72325;SDS011;60278;47.980;18.780;2023-11-19T14:59:44;41.78;;;23.08;;
72325;SDS011;60278;47.980;18.780;2023-11-19T15:02:46;34.25;;;21.55;;
72325;SDS011;60278;47.980;18.780;2023-11-19T15:05:48;38.23;;;23.70;;
72325;SDS011;60278;47.980;18.780;2023-11-19T15:08:50;43.43;;;26.27;;
72325;SDS011;60278;47.980;18.780;2023-11-19T15:11:55;50.40;;;27.35;;
72325;SDS011;60278;47.980;18.780;2023-11-19T15:14:57;53.40;;;28.70;;
72325;SDS011;60278;47.980;18.780;2023-11-19T15:17:59;59.92;;;28.88;;
72325;SDS011;60278;47.980;18.780;2023-11-19T15:21:02;53.80;;;25.43;;
72325;SDS011;60278;47.980;18.780;2023-11-19T15:24:04;47.10;;;25.63;;
72325;SDS011;60278;47.980;18.780;2023-11-19T15:27:09;40.00;;;23.17;;
72325;SDS011;60278;47.980;18.780;2023-11-19T15:30:15;42.25;;;24.60;;
72325;SDS011;60278;47.980;18.780;2023-11-19T15:33:18;39.13;;;23.63;;
72325;SDS011;60278;47.980;18.780;2023-11-19T15:36:20;41.27;;;21.87;;
72325;SDS011;60278;47.980;18.780;2023-11-19T15:39:22;37.70;;;21.87;;
72325;SDS011;60278;47.980;18.780;2023-11-19T15:42:24;38.95;;;23.58;;
72325;SDS011;60278;47.980;18.780;2023-11-19T15:45:26;43.88;;;23.98;;
72325;SDS011;60278;47.980;18.780;2023-11-19T15:48:28;45.13;;;24.75;;
72325;SDS011;60278;47.980;18.780;2023-11-19T15:51:30;47.80;;;27.63;;
72325;SDS011;60278;47.980;18.780;2023-11-19T15:54:32;43.73;;;27.50;;
72325;SDS011;60278;47.980;18.780;2023-11-19T15:57:36;40.92;;;24.60;;
72325;SDS011;60278;47.980;18.780;2023-11-19T16:00:39;40.22;;;21.73;;
72325;SDS011;60278;47.980;18.780;2023-11-19T16:03:42;48.75;;;26.13;;
72325;SDS011;60278;47.980;18.780;2023-11-19T16:06:47;45.83;;;27.83;;
72325;SDS011;60278;47.980;18.780;2023-11-19T16:09:49;44.30;;;25.53;;
72325;SDS011;60278;47.980;18.780;2023-11-19T16:12:52;35.60;;;22.10;;
72325;SDS011;60278;47.980;18.780;2023-11-19T16:15:54;39.65;;;23.52;;
72325;SDS011;60278;47.980;18.780;2023-11-19T16:18:56;41.40;;;21.13;;
72325;SDS011;60278;47.980;18.780;2023-11-19T16:21:58;42.37;;;22.40;;
72325;SDS011;60278;47.980;18.780;2023-11-19T16:25:07;52.37;;;28.43;;
72325;SDS011;60278;47.980;18.780;2023-11-19T16:28:09;76.63;;;40.08;;
72325;SDS011;60278;47.980;18.780;2023-11-19T16:31:11;46.70;;;27.13;;
72325;SDS011;60278;47.980;18.780;2023-11-19T16:34:15;40.17;;;22.40;;
72325;SDS011;60278;47.980;18.780;2023-11-19T16:37:17;43.30;;;26.07;;
72325;SDS011;60278;47.980;18.780;2023-11-19T16:40:19;39.27;;;23.50;;
72325;SDS011;60278;47.980;18.780;2023-11-19T16:43:23;44.97;;;24.52;;
72325;SDS011;60278;47.980;18.780;2023-11-19T16:46:29;49.42;;;27.20;;
72325;SDS011;60278;47.980;18.780;2023-11-19T16:49:32;45.92;;;24.50;;
72325;SDS011;60278;47.980;18.780;2023-11-19T16:52:34;54.73;;;29.43;;
72325;SDS011;60278;47.980;18.780;2023-11-19T16:55:36;65.57;;;30.50;;
72325;SDS011;60278;47.980;18.780;2023-11-19T16:58:39;63.03;;;30.38;;
72325;SDS011;60278;47.980;18.780;2023-11-19T17:01:44;52.03;;;28.20;;
72325;SDS011;60278;47.980;18.780;2023-11-19T17:04:47;41.25;;;21.50;;
72325;SDS011;60278;47.980;18.780;2023-11-19T17:07:49;43.97;;;23.13;;
72325;SDS011;60278;47.980;18.780;2023-11-19T17:10:52;41.27;;;22.57;;
72325;SDS011;60278;47.980;18.780;2023-11-19T17:13:55;42.35;;;22.95;;
72325;SDS011;60278;47.980;18.780;2023-11-19T17:16:57;48.78;;;26.60;;
72325;SDS011;60278;47.980;18.780;2023-11-19T17:19:59;53.85;;;29.50;;
72325;SDS011;60278;47.980;18.780;2023-11-19T17:23:03;52.60;;;29.00;;
72325;SDS011;60278;47.980;18.780;2023-11-19T17:26:07;53.77;;;32.37;;
72325;SDS011;60278;47.980;18.780;2023-11-19T17:29:09;48.17;;;27.05;;
72325;SDS011;60278;47.980;18.780;2023-11-19T17:32:12;41.42;;;21.70;;
72325;SDS011;60278;47.980;18.780;2023-11-19T17:35:14;35.65;;;20.48;;
72325;SDS011;60278;47.980;18.780;2023-11-19T17:38:16;41.07;;;20.67;;
72325;SDS011;60278;47.980;18.780;2023-11-19T17:41:21;36.80;;;19.67;;
72325;SDS011;60278;47.980;18.780;2023-11-19T17:44:24;39.35;;;21.25;;
72325;SDS011;60278;47.980;18.780;2023-11-19T17:47:31;42.80;;;24.08;;
72325;SDS011;60278;47.980;18.780;2023-11-19T17:50:33;40.75;;;21.70;;